createdAt,value
2019-01-19T00:02:03.892Z,5.67
2019-01-19T00:04:59.119Z,5.33
2019-01-19T00:07:41.906Z,5.87
2019-01-19T00:10:35.473Z,5.57
2019-01-19T00:13:23.964Z,5.73
2019-01-19T00:16:10.045Z,5.13
2019-01-19T00:19:14.567Z,5.03
2019-01-19T00:21:54.630Z,5.40
2019-01-19T00:24:43.458Z,5.97
2019-01-19T00:27:44.670Z,5.47
2019-01-19T00:30:24.738Z,5.10
2019-01-19T00:33:16.511Z,5.83
2019-01-19T00:36:15.085Z,5.90
2019-01-19T00:38:55.526Z,5.40
2019-01-19T00:41:49.442Z,6.03
2019-01-19T00:44:32.665Z,5.43
2019-01-19T00:47:38.338Z,6.30
2019-01-19T00:50:40.079Z,5.83
2019-01-19T00:53:22.877Z,6.93
2019-01-19T00:56:16.588Z,6.58
2019-01-19T00:58:53.209Z,7.87
2019-01-19T01:02:03.311Z,8.13
2019-01-19T01:04:46.473Z,8.60
2019-01-19T01:07:44.500Z,8.47
2019-01-19T01:10:33.016Z,8.73
2019-01-19T01:13:18.995Z,9.33
2019-01-19T01:16:06.894Z,9.70
2019-01-19T01:18:52.745Z,9.17
2019-01-19T01:22:11.140Z,9.80
2019-01-19T01:25:09.633Z,8.97
2019-01-19T01:28:04.985Z,10.23
2019-01-19T01:30:39.229Z,9.98
2019-01-19T01:33:32.965Z,10.40
2019-01-19T01:36:12.876Z,10.07
2019-01-19T01:39:18.387Z,10.13
2019-01-19T01:41:58.279Z,10.63
2019-01-19T01:44:50.284Z,9.90
2019-01-19T01:47:50.325Z,9.70
2019-01-19T01:50:48.283Z,10.07
2019-01-19T01:54:12.788Z,10.10
2019-01-19T01:56:42.301Z,9.60
2019-01-19T01:59:43.832Z,9.43
2019-01-19T02:02:23.935Z,10.53
2019-01-19T02:05:29.534Z,10.03
2019-01-19T02:08:12.562Z,11.03
2019-01-19T02:10:52.235Z,10.87
2019-01-19T02:13:41.842Z,10.72
2019-01-19T02:16:42.734Z,11.05
2019-01-19T02:19:40.431Z,11.15
2019-01-19T02:22:26.925Z,11.33
2019-01-19T02:25:20.610Z,11.68
2019-01-19T02:28:15.906Z,11.80
2019-01-19T02:31:13.663Z,11.17
2019-01-19T02:34:07.467Z,11.60
2019-01-19T02:36:59.365Z,11.33
2019-01-19T02:40:14.328Z,11.78
2019-01-19T02:43:09.347Z,11.80
2019-01-19T02:46:14.178Z,12.37
2019-01-19T02:49:08.015Z,12.17
2019-01-19T02:51:53.399Z,11.97
2019-01-19T02:54:39.158Z,12.20
2019-01-19T02:57:31.272Z,11.90
2019-01-19T03:00:34.018Z,11.80
2019-01-19T03:03:33.536Z,12.37
2019-01-19T03:06:16.428Z,12.77
2019-01-19T03:08:56.400Z,12.83
2019-01-19T03:11:54.582Z,12.40
2019-01-19T03:14:31.783Z,14.10
2019-01-19T03:17:15.953Z,13.85
2019-01-19T03:19:59.386Z,13.07
2019-01-19T03:22:36.171Z,13.40
2019-01-19T03:25:28.517Z,13.37
2019-01-19T03:28:40.297Z,12.60
2019-01-19T03:31:35.435Z,13.20
2019-01-19T03:34:15.299Z,12.73
2019-01-19T03:37:27.423Z,12.50
2019-01-19T03:40:22.518Z,12.53
2019-01-19T03:43:17.517Z,13.03
2019-01-19T03:46:23.657Z,12.80
2019-01-19T03:48:57.888Z,11.80
2019-01-19T03:51:49.433Z,12.28
2019-01-19T03:54:42.812Z,12.70
2019-01-19T03:57:17.028Z,14.40
2019-01-19T04:00:24.901Z,13.98
2019-01-19T04:03:24.354Z,13.03
2019-01-19T04:06:12.793Z,12.77
2019-01-19T04:09:31.027Z,14.27
2019-01-19T04:12:30.250Z,13.53
2019-01-19T04:15:18.705Z,14.18
2019-01-19T04:18:07.609Z,13.00
2019-01-19T04:20:50.582Z,14.40
2019-01-19T04:23:20.185Z,14.43
2019-01-19T04:25:54.512Z,14.07
2019-01-19T04:28:24.915Z,13.30
2019-01-19T04:30:54.478Z,14.47
2019-01-19T04:33:24.050Z,13.35
2019-01-19T04:35:53.585Z,14.30
2019-01-19T04:38:23.113Z,13.08
2019-01-19T04:40:52.736Z,13.17
2019-01-19T04:43:22.371Z,13.90
2019-01-19T04:45:51.918Z,13.43
2019-01-19T04:48:22.391Z,13.93
2019-01-19T04:50:52.378Z,13.47
2019-01-19T04:53:21.894Z,12.90
2019-01-19T04:55:51.508Z,12.77
2019-01-19T04:58:21.107Z,13.57
2019-01-19T05:00:50.647Z,12.60
2019-01-19T05:03:20.216Z,12.13
2019-01-19T05:05:49.789Z,12.70
2019-01-19T05:08:19.348Z,13.53
2019-01-19T05:10:48.878Z,13.45
2019-01-19T05:13:18.536Z,12.17
2019-01-19T05:15:48.074Z,12.47
2019-01-19T05:18:18.176Z,11.73
2019-01-19T05:20:47.881Z,12.33
2019-01-19T05:23:17.466Z,12.07
2019-01-19T05:25:47.011Z,11.70
2019-01-19T05:28:16.557Z,13.03
2019-01-19T05:30:46.057Z,11.93
2019-01-19T05:33:15.584Z,12.33
2019-01-19T05:35:45.108Z,11.73
2019-01-19T05:38:14.749Z,12.03
2019-01-19T05:40:44.310Z,11.20
2019-01-19T05:43:13.899Z,11.57
2019-01-19T05:45:43.462Z,12.60
2019-01-19T05:48:13.012Z,12.45
2019-01-19T05:50:42.556Z,12.30
2019-01-19T05:53:12.395Z,11.73
2019-01-19T05:55:42.067Z,11.70
2019-01-19T05:58:11.622Z,11.63
2019-01-19T06:00:41.131Z,11.27
2019-01-19T06:03:10.765Z,11.10
2019-01-19T06:05:42.122Z,11.50
2019-01-19T06:08:11.659Z,11.43
2019-01-19T06:10:41.179Z,12.67
2019-01-19T06:13:10.708Z,12.93
2019-01-19T06:15:40.305Z,11.70
2019-01-19T06:18:11.328Z,12.43
2019-01-19T06:20:40.833Z,11.47
2019-01-19T06:23:10.364Z,12.25
2019-01-19T06:25:40.247Z,12.13
2019-01-19T06:28:09.823Z,12.47
2019-01-19T06:30:39.353Z,12.53
2019-01-19T06:33:08.891Z,11.53
2019-01-19T06:35:38.414Z,11.43
2019-01-19T06:38:08.041Z,11.93
2019-01-19T06:40:37.667Z,11.67
2019-01-19T06:43:07.258Z,10.60
2019-01-19T06:45:36.743Z,10.70
2019-01-19T06:48:06.454Z,11.40
2019-01-19T06:50:36.022Z,11.63
2019-01-19T06:53:05.771Z,17.80
2019-01-19T06:55:35.471Z,19.17
2019-01-19T06:58:05.311Z,26.30
2019-01-19T07:00:34.844Z,23.53
2019-01-19T07:03:04.441Z,18.42
2019-01-19T07:05:34.050Z,11.83
2019-01-19T07:08:03.621Z,11.40
2019-01-19T07:10:33.200Z,11.73
2019-01-19T07:13:02.758Z,10.67
2019-01-19T07:15:32.281Z,11.13
2019-01-19T07:18:01.891Z,10.87
2019-01-19T07:20:31.566Z,10.60
2019-01-19T07:23:01.096Z,10.70
2019-01-19T07:25:30.638Z,10.20
2019-01-19T07:28:00.181Z,10.17
2019-01-19T07:30:29.719Z,10.27
2019-01-19T07:32:59.398Z,10.10
2019-01-19T07:35:28.965Z,10.10
2019-01-19T07:37:58.582Z,9.43
2019-01-19T07:40:28.129Z,9.60
2019-01-19T07:42:59.609Z,9.43
2019-01-19T07:45:29.203Z,9.37
2019-01-19T07:47:58.856Z,9.10
2019-01-19T07:50:28.462Z,8.77
2019-01-19T07:52:57.988Z,9.70
2019-01-19T07:55:28.395Z,9.23
2019-01-19T07:57:57.974Z,9.43
2019-01-19T08:00:31.152Z,8.77
2019-01-19T08:03:00.762Z,8.37
2019-01-19T08:05:30.469Z,8.85
2019-01-19T08:07:59.995Z,9.33
2019-01-19T08:10:29.546Z,9.03
2019-01-19T08:12:59.060Z,8.67
2019-01-19T08:15:29.718Z,8.85
2019-01-19T08:17:59.222Z,8.67
2019-01-19T08:20:28.792Z,9.03
2019-01-19T08:22:58.376Z,8.70
2019-01-19T08:25:27.899Z,8.50
2019-01-19T08:27:57.615Z,8.60
2019-01-19T08:30:29.817Z,8.40
2019-01-19T08:32:59.790Z,8.23
2019-01-19T08:35:29.771Z,8.47
2019-01-19T08:37:59.380Z,8.00
2019-01-19T08:40:36.587Z,7.40
2019-01-19T08:43:13.781Z,7.37
2019-01-19T08:45:43.450Z,7.67
2019-01-19T08:48:13.728Z,7.67
2019-01-19T08:50:43.264Z,7.43
2019-01-19T08:53:12.877Z,7.50
2019-01-19T08:55:42.375Z,7.70
2019-01-19T08:58:11.939Z,8.83
2019-01-19T09:00:41.583Z,12.27
2019-01-19T09:03:11.191Z,12.83
2019-01-19T09:05:43.874Z,9.20
2019-01-19T09:08:13.396Z,9.17
2019-01-19T09:10:42.970Z,7.83
2019-01-19T09:13:12.555Z,8.63
2019-01-19T09:15:42.310Z,8.60
2019-01-19T09:18:12.209Z,8.33
2019-01-19T09:20:41.833Z,8.78
2019-01-19T09:23:13.059Z,8.93
2019-01-19T09:25:42.674Z,10.40
2019-01-19T09:28:12.435Z,10.57
2019-01-19T09:30:42.050Z,9.70
2019-01-19T09:33:11.630Z,8.77
2019-01-19T09:35:41.709Z,16.20
2019-01-19T09:38:11.406Z,9.53
2019-01-19T09:40:40.993Z,9.40
2019-01-19T09:43:10.671Z,12.50
2019-01-19T09:45:40.173Z,9.23
2019-01-19T09:48:10.069Z,8.53
2019-01-19T09:50:39.630Z,8.50
2019-01-19T09:53:09.290Z,8.97
2019-01-19T09:55:38.870Z,11.47
2019-01-19T09:58:08.492Z,10.90
2019-01-19T10:00:45.428Z,12.37
2019-01-19T10:03:10.379Z,12.00
2019-01-19T10:05:39.991Z,9.50
2019-01-19T10:08:09.620Z,9.17
2019-01-19T10:10:40.056Z,10.35
2019-01-19T10:13:09.643Z,9.97
2019-01-19T10:18:31.617Z,9.97
2019-01-19T10:21:01.492Z,10.17
2019-01-19T10:23:30.987Z,10.30
2019-01-19T10:26:00.504Z,13.35
2019-01-19T10:28:30.007Z,12.10
2019-01-19T10:30:59.652Z,10.27
2019-01-19T10:33:29.261Z,9.87
2019-01-19T10:35:58.833Z,10.70
2019-01-19T10:38:28.324Z,9.63
2019-01-19T10:40:57.845Z,10.60
2019-01-19T10:43:27.382Z,9.27
2019-01-19T10:46:10.098Z,10.10
2019-01-19T10:48:39.630Z,8.40
2019-01-19T10:51:09.212Z,9.77
2019-01-19T10:53:38.702Z,9.05
2019-01-19T10:56:08.223Z,10.80
2019-01-19T10:58:37.749Z,12.17
2019-01-19T11:01:07.258Z,9.33
2019-01-19T11:03:36.835Z,8.30
2019-01-19T11:06:06.454Z,9.00
2019-01-19T11:08:35.964Z,7.78
2019-01-19T11:11:05.559Z,8.37
2019-01-19T11:13:35.070Z,9.40
2019-01-19T11:16:04.772Z,7.63
2019-01-19T11:18:34.914Z,8.63
2019-01-19T11:21:04.452Z,8.58
2019-01-19T11:23:39.723Z,8.20
2019-01-19T11:26:06.370Z,7.75
2019-01-19T11:28:35.859Z,8.03
2019-01-19T11:31:05.435Z,8.00
2019-01-19T11:33:34.918Z,7.63
2019-01-19T11:36:04.671Z,7.10
2019-01-19T11:38:34.573Z,8.15
2019-01-19T11:41:04.072Z,9.83
2019-01-19T11:43:33.563Z,7.30
2019-01-19T11:46:03.054Z,7.57
2019-01-19T11:48:32.546Z,11.90
2019-01-19T11:51:02.822Z,10.75
2019-01-19T11:53:32.354Z,9.67
2019-01-19T11:56:01.868Z,7.30
2019-01-19T11:58:31.397Z,6.53
2019-01-19T12:01:00.929Z,6.80
2019-01-19T12:03:30.926Z,6.65
2019-01-19T12:06:01.212Z,6.73
2019-01-19T12:08:30.705Z,7.73
2019-01-19T12:11:00.218Z,11.03
2019-01-19T12:13:29.756Z,7.80
2019-01-19T12:15:59.288Z,6.33
2019-01-19T12:18:28.847Z,6.50
2019-01-19T12:20:58.387Z,7.37
2019-01-19T12:23:27.893Z,6.90
2019-01-19T12:25:57.380Z,6.43
2019-01-19T12:28:27.220Z,6.72
2019-01-19T12:30:56.794Z,6.37
2019-01-19T12:33:45.673Z,6.27
2019-01-19T12:36:15.153Z,5.20
2019-01-19T12:38:44.668Z,5.80
2019-01-19T12:41:14.150Z,5.33
2019-01-19T12:43:44.143Z,5.30
2019-01-19T12:46:13.719Z,5.90
2019-01-19T12:48:43.231Z,5.27
2019-01-19T12:51:12.945Z,5.90
2019-01-19T12:53:42.433Z,5.90
2019-01-19T12:56:12.036Z,6.43
2019-01-19T12:58:41.530Z,6.60
2019-01-19T13:01:11.119Z,5.60
2019-01-19T13:03:40.770Z,5.90
2019-01-19T13:06:17.395Z,7.07
2019-01-19T13:08:46.955Z,6.57
2019-01-19T13:11:41.843Z,6.70
2019-01-19T13:14:11.378Z,7.50
2019-01-19T13:17:35.288Z,9.73
2019-01-19T13:20:30.045Z,7.33
2019-01-19T13:23:10.003Z,6.67
2019-01-19T13:25:55.753Z,6.60
2019-01-19T13:28:49.102Z,7.07
2019-01-19T13:31:26.209Z,7.73
2019-01-19T13:34:07.439Z,7.20
2019-01-19T13:36:56.128Z,7.13
2019-01-19T13:39:58.921Z,6.97
2019-01-19T13:42:56.514Z,6.50
2019-01-19T13:45:48.185Z,8.87
2019-01-19T13:48:38.324Z,7.43
2019-01-19T13:51:30.315Z,6.40
2019-01-19T13:54:22.038Z,4.80
2019-01-19T13:56:58.671Z,4.40
2019-01-19T13:59:50.668Z,4.27
2019-01-19T14:02:33.724Z,4.43
2019-01-19T14:05:19.478Z,3.93
2019-01-19T14:08:08.091Z,4.30
2019-01-19T14:11:01.175Z,4.40
2019-01-19T14:13:44.812Z,4.10
2019-01-19T14:16:51.877Z,4.50
2019-01-19T14:19:46.870Z,5.17
2019-01-19T14:22:38.450Z,5.30
2019-01-19T14:25:38.878Z,5.30
2019-01-19T14:28:30.801Z,4.60
2019-01-19T14:31:13.665Z,4.90
2019-01-19T14:34:15.983Z,4.83
2019-01-19T14:36:53.343Z,5.03
2019-01-19T14:39:36.232Z,5.53
2019-01-19T14:42:22.523Z,5.28
2019-01-19T14:44:56.683Z,4.97
2019-01-19T14:47:39.445Z,4.70
2019-01-19T14:50:35.397Z,4.73
2019-01-19T14:53:43.389Z,5.00
2019-01-19T14:56:37.187Z,5.33
2019-01-19T14:59:25.400Z,5.80
2019-01-19T15:02:17.551Z,5.95
2019-01-19T15:04:54.699Z,5.67
2019-01-19T15:07:40.461Z,5.13
2019-01-19T15:10:32.606Z,5.53
2019-01-19T15:13:36.743Z,5.13
2019-01-19T15:16:22.612Z,5.10
2019-01-19T15:19:03.379Z,5.43
2019-01-19T15:21:58.653Z,5.73
2019-01-19T15:24:32.818Z,5.90
2019-01-19T15:27:12.333Z,5.90
2019-01-19T15:29:49.059Z,6.07
2019-01-19T15:32:43.690Z,5.97
2019-01-19T15:35:26.753Z,5.90
2019-01-19T15:38:26.179Z,5.60
2019-01-19T15:41:18.292Z,5.53
2019-01-19T15:44:18.586Z,5.80
2019-01-19T15:46:55.760Z,5.63
2019-01-19T15:49:38.643Z,5.20
2019-01-19T15:52:27.173Z,5.27
2019-01-19T15:55:23.602Z,5.67
2019-01-19T15:58:15.448Z,5.73
2019-01-19T16:01:19.591Z,5.17
2019-01-19T16:04:04.931Z,5.83
2019-01-19T16:07:14.696Z,10.13
2019-01-19T16:10:07.852Z,7.97
2019-01-19T16:12:50.669Z,6.65
2019-01-19T16:16:08.390Z,6.80
2019-01-19T16:18:57.706Z,6.17
2019-01-19T16:21:51.333Z,6.45
2019-01-19T16:24:28.083Z,7.13
2019-01-19T16:27:31.388Z,7.90
2019-01-19T16:30:56.677Z,6.23
2019-01-19T16:33:39.612Z,5.50
2019-01-19T16:36:19.171Z,5.30
2019-01-19T16:39:25.577Z,6.33
2019-01-19T16:41:58.771Z,5.47
2019-01-19T16:44:53.785Z,5.53
2019-01-19T16:47:54.747Z,6.33
2019-01-19T16:50:49.643Z,6.93
2019-01-19T16:53:38.211Z,5.47
2019-01-19T16:56:45.262Z,6.17
2019-01-19T16:59:40.651Z,5.70
2019-01-19T17:02:42.488Z,5.83
2019-01-19T17:05:45.346Z,5.40
2019-01-19T17:08:40.946Z,6.47
2019-01-19T17:11:15.128Z,5.90
2019-01-19T17:14:11.357Z,5.93
2019-01-19T17:16:54.486Z,5.77
2019-01-19T17:19:54.383Z,6.20
2019-01-19T17:22:37.005Z,6.27
2019-01-19T17:25:17.051Z,6.20
2019-01-19T17:28:14.893Z,6.83
2019-01-19T17:31:11.360Z,6.47
2019-01-19T17:33:48.282Z,6.67
2019-01-19T17:36:33.523Z,6.27
2019-01-19T17:39:40.583Z,8.53
2019-01-19T17:42:59.436Z,7.73
2019-01-19T17:46:00.319Z,6.77
2019-01-19T17:48:55.468Z,7.13
2019-01-19T17:51:32.312Z,6.10
2019-01-19T17:54:14.634Z,6.50
2019-01-19T17:56:51.553Z,6.50
2019-01-19T17:59:49.113Z,6.60
2019-01-19T18:02:31.774Z,6.97
2019-01-19T18:05:17.828Z,6.83
2019-01-19T18:08:15.712Z,7.07
2019-01-19T18:11:25.473Z,6.63
2019-01-19T18:14:02.400Z,6.30
2019-01-19T18:16:54.123Z,6.63
2019-01-19T18:19:39.818Z,8.40
2019-01-19T18:22:42.384Z,9.93
2019-01-19T18:25:31.145Z,9.00
2019-01-19T18:28:23.535Z,8.93
2019-01-19T18:31:19.868Z,9.07
2019-01-19T18:33:57.044Z,8.33
2019-01-19T18:36:57.897Z,8.90
2019-01-19T18:39:38.293Z,8.27
2019-01-19T18:42:48.064Z,8.80
2019-01-19T18:45:34.074Z,7.90
2019-01-19T18:48:17.025Z,8.20
2019-01-19T18:51:10.869Z,7.40
2019-01-19T18:54:38.401Z,8.60
2019-01-19T18:57:41.816Z,8.83
2019-01-19T19:00:33.606Z,7.90
2019-01-19T19:03:33.138Z,8.40
2019-01-19T19:06:46.113Z,8.00
2019-01-19T19:09:42.801Z,8.57
2019-01-19T19:12:23.082Z,8.10
2019-01-19T19:15:21.100Z,8.70
2019-01-19T19:18:22.911Z,8.47
2019-01-19T19:20:57.132Z,8.63
2019-01-19T19:23:57.995Z,8.80
2019-01-19T19:26:58.844Z,8.48
2019-01-19T19:30:10.585Z,9.13
2019-01-19T19:33:23.746Z,8.50
2019-01-19T19:36:26.059Z,8.07
2019-01-19T19:39:36.096Z,8.50
2019-01-19T19:42:30.884Z,8.75
2019-01-19T19:45:41.186Z,8.73
2019-01-19T19:48:30.275Z,8.83
2019-01-19T19:51:25.357Z,9.00
2019-01-19T19:53:54.854Z,9.13
2019-01-19T19:56:22.743Z,9.03
2019-01-19T19:58:52.287Z,9.43
2019-01-19T20:01:21.852Z,9.03
2019-01-19T20:03:51.402Z,9.83
2019-01-19T20:06:20.964Z,10.57
2019-01-19T20:08:51.748Z,9.60
2019-01-19T20:11:21.249Z,10.20
2019-01-19T20:13:50.826Z,11.08
2019-01-19T20:16:20.387Z,11.37
2019-01-19T20:18:49.950Z,10.27
2019-01-19T20:21:20.583Z,10.88
2019-01-19T20:23:50.273Z,11.07
2019-01-19T20:26:19.843Z,10.87
2019-01-19T20:28:49.346Z,11.17
2019-01-19T20:31:18.959Z,11.08
2019-01-19T20:33:48.851Z,10.90
2019-01-19T20:36:18.491Z,11.10
2019-01-19T20:38:48.065Z,11.37
2019-01-19T20:41:17.625Z,11.73
2019-01-19T20:43:47.176Z,11.08
2019-01-19T20:46:17.318Z,11.25
2019-01-19T20:48:46.937Z,12.87
2019-01-19T20:51:16.494Z,14.27
2019-01-19T20:53:46.066Z,15.27
2019-01-19T20:56:15.568Z,13.55
2019-01-19T20:58:45.826Z,12.40
2019-01-19T21:01:15.336Z,12.53
2019-01-19T21:04:16.639Z,12.60
2019-01-19T21:07:18.324Z,11.67
2019-01-19T21:09:47.827Z,12.23
2019-01-19T21:12:17.382Z,11.85
2019-01-19T21:14:46.887Z,13.17
2019-01-19T21:17:16.416Z,13.10
2019-01-19T21:19:45.920Z,12.60
2019-01-19T21:22:15.595Z,13.13
2019-01-19T21:24:45.094Z,12.67
2019-01-19T21:27:14.639Z,12.50
2019-01-19T21:29:44.137Z,12.33
2019-01-19T21:32:13.742Z,11.93
2019-01-19T21:34:43.309Z,12.60
2019-01-19T21:37:12.812Z,12.53
2019-01-19T21:39:42.380Z,11.80
2019-01-19T21:42:11.990Z,12.17
2019-01-19T21:44:41.507Z,12.35
2019-01-19T21:47:11.019Z,11.03
2019-01-19T21:49:40.562Z,12.37
2019-01-19T21:52:10.183Z,11.97
2019-01-19T21:54:39.687Z,11.77
2019-01-19T21:57:09.257Z,14.50
2019-01-19T21:59:38.836Z,13.37
2019-01-19T22:02:08.375Z,15.30
2019-01-19T22:04:37.883Z,13.97
2019-01-19T22:07:07.524Z,14.00
2019-01-19T22:09:37.133Z,13.70
2019-01-19T22:12:06.643Z,14.00
2019-01-19T22:14:36.283Z,13.90
2019-01-19T22:17:05.776Z,13.00
2019-01-19T22:19:35.520Z,13.63
2019-01-19T22:22:05.159Z,13.53
2019-01-19T22:24:34.658Z,13.73
2019-01-19T22:27:05.831Z,12.93
2019-01-19T22:29:35.784Z,14.57
2019-01-19T22:32:05.341Z,14.47
2019-01-19T22:34:34.920Z,15.00
2019-01-19T22:37:05.286Z,14.60
2019-01-19T22:39:34.779Z,15.13
2019-01-19T22:42:04.611Z,15.50
2019-01-19T22:44:34.268Z,16.03
2019-01-19T22:47:03.865Z,15.30
2019-01-19T22:49:33.381Z,14.83
2019-01-19T22:52:22.264Z,15.67
2019-01-19T22:55:05.479Z,15.80
2019-01-19T22:57:54.328Z,15.27
2019-01-19T23:00:51.675Z,16.27
2019-01-19T23:03:21.180Z,14.47
2019-01-19T23:05:50.728Z,15.97
2019-01-19T23:08:20.235Z,15.57
2019-01-19T23:10:49.807Z,16.30
2019-01-19T23:13:19.483Z,17.07
2019-01-19T23:15:49.047Z,15.37
2019-01-19T23:18:18.545Z,17.13
2019-01-19T23:20:48.064Z,17.07
2019-01-19T23:23:17.577Z,17.65
2019-01-19T23:25:47.222Z,17.77
2019-01-19T23:28:16.795Z,16.80
2019-01-19T23:30:46.317Z,15.70
2019-01-19T23:33:15.807Z,16.10
2019-01-19T23:35:45.395Z,16.20
2019-01-19T23:38:14.962Z,15.50
2019-01-19T23:40:44.469Z,15.73
2019-01-19T23:43:14.126Z,15.93
2019-01-19T23:46:02.993Z,16.70
2019-01-19T23:48:32.565Z,16.60
2019-01-19T23:51:02.560Z,16.73
2019-01-19T23:53:32.070Z,15.80
2019-01-19T23:56:01.695Z,16.00
2019-01-19T23:58:31.173Z,15.67
